Accueil
METAR-TAF:

METAR-TAF

Aéroports :

Aéroport international Cassidy

Île Christmas, Kiribati

latitude: 01-59N, longitude: 157-29W, altitude: 3 m

Observation

Le bulletin a été fait il y a 28 minutes, à 05:00 UTC
Vent 5 kt de est/sud-est
Température 27°C
Humidité 84%
Pression 1008 hPa
Visibilité 10 km ou plus
Nuages épars à une hauteur de 2000 ft

METAR: PLCH 230500Z 11005KT 9999 SCT020 27/24 Q1008

Heure: 19:28 (05:28 UTC)

Prévision

Le bulletin a été fait il y a 6 heures et 26 minutes, à 23:02 UTC
Prévision valable du 23 à 00 UTC au 23 à 24 UTC
Vent 10 kt de est
Visibilité 10 km ou plus
Nuages épars à une hauteur de 1800 ft

TAF: PLCH 222302Z 2300/2324 10010KT 9999 SCT018

Observations et prévisions météorologiques de plus de 4000 aéroports (messages METAR et TAF).

Les stations disponibles sont représentées par des disques jaunes et rouges sur la carte.

Passer la souris dessus pour voir le nom de la station.

Cliquer dessus pour voir les observations et prévisions météorologiques.

Pour changer de carte: cliquez sur les boutons verts avec une croix noire pour zoomer, sur le bouton vert avec un tiret pour effectuer un zoom arrière, ou sur les flèches vertes pour les cartes adjacentes.


METAR-TAF: